createdAt,value
2022-07-25T00:00:22.839Z,38.58
2022-07-25T00:02:51.262Z,38.48
2022-07-25T00:05:19.807Z,38.62
2022-07-25T00:07:47.882Z,38.67
2022-07-25T00:10:17.289Z,38.57
2022-07-25T00:12:45.422Z,38.70
2022-07-25T00:15:14.040Z,38.61
2022-07-25T00:17:42.273Z,38.85
2022-07-25T00:20:10.930Z,38.72
2022-07-25T00:22:38.880Z,38.92
2022-07-25T00:25:07.741Z,39.90
2022-07-25T00:27:37.106Z,41.67
2022-07-25T00:30:06.567Z,42.01
2022-07-25T00:32:34.523Z,41.81
2022-07-25T00:35:02.519Z,41.33
2022-07-25T00:37:30.529Z,40.69
2022-07-25T00:39:58.616Z,40.36
2022-07-25T00:42:26.560Z,40.15
2022-07-25T00:44:56.252Z,39.85
2022-07-25T00:47:24.312Z,39.76
2022-07-25T00:49:52.333Z,39.59
2022-07-25T00:52:20.829Z,39.29
2022-07-25T00:54:48.948Z,39.33
2022-07-25T00:57:17.091Z,39.73
2022-07-25T00:59:45.066Z,39.63
2022-07-25T01:02:14.470Z,39.97
2022-07-25T01:04:42.570Z,40.11
2022-07-25T01:07:10.589Z,40.25
2022-07-25T01:09:39.055Z,40.32
2022-07-25T01:12:07.304Z,40.38
2022-07-25T01:14:39.668Z,40.56
2022-07-25T01:17:07.636Z,40.39
2022-07-25T01:19:37.178Z,40.58
2022-07-25T01:22:06.679Z,40.76
2022-07-25T01:24:35.290Z,41.00
2022-07-25T01:27:03.408Z,40.84
2022-07-25T01:29:31.371Z,41.00
2022-07-25T01:31:59.519Z,40.78
2022-07-25T01:34:27.466Z,40.86
2022-07-25T01:36:55.465Z,40.82
2022-07-25T01:39:24.808Z,41.09
2022-07-25T01:41:52.799Z,42.02
2022-07-25T01:44:20.778Z,42.07
2022-07-25T01:46:48.807Z,42.33
2022-07-25T01:49:16.970Z,42.00
2022-07-25T01:51:45.075Z,42.06
2022-07-25T01:54:13.087Z,41.84
2022-07-25T01:56:48.290Z,41.89
2022-07-25T01:59:16.792Z,42.05
2022-07-25T02:01:44.985Z,41.99
2022-07-25T02:04:13.287Z,41.78
2022-07-25T02:06:41.871Z,41.84
2022-07-25T02:09:10.726Z,41.72
2022-07-25T02:11:38.740Z,41.44
2022-07-25T02:14:08.749Z,41.68
2022-07-25T02:16:36.901Z,42.09
2022-07-25T02:19:05.454Z,41.79
2022-07-25T02:21:33.495Z,41.96
2022-07-25T02:24:01.536Z,42.00
2022-07-25T02:26:29.567Z,42.56
2022-07-25T02:28:57.558Z,42.59
2022-07-25T02:31:27.002Z,43.13
2022-07-25T02:33:55.040Z,43.22
2022-07-25T02:36:23.381Z,43.55
2022-07-25T02:38:52.459Z,43.95
2022-07-25T02:41:20.443Z,44.00
2022-07-25T02:43:48.428Z,44.36
2022-07-25T02:46:16.854Z,44.73
2022-07-25T02:48:46.503Z,44.69
2022-07-25T02:51:14.623Z,44.69
2022-07-25T02:53:58.859Z,45.05
2022-07-25T02:56:30.061Z,45.14
2022-07-25T02:58:59.917Z,45.30
2022-07-25T03:01:28.324Z,45.53
2022-07-25T03:03:57.849Z,45.81
2022-07-25T03:06:25.866Z,45.42
2022-07-25T03:08:54.030Z,45.57
2022-07-25T03:11:22.271Z,45.82
2022-07-25T03:13:50.342Z,45.86
2022-07-25T03:16:18.403Z,45.92
2022-07-25T03:18:46.962Z,45.82
2022-07-25T03:21:16.325Z,45.59
2022-07-25T03:23:47.892Z,45.65
2022-07-25T03:26:18.468Z,45.55
2022-07-25T03:28:46.449Z,45.43
2022-07-25T03:31:14.408Z,45.57
2022-07-25T03:33:42.406Z,45.96
2022-07-25T03:36:10.681Z,45.60
2022-07-25T03:38:40.389Z,45.50
2022-07-25T03:41:08.361Z,45.49
2022-07-25T03:43:36.494Z,45.15
2022-07-25T03:46:04.967Z,45.47
2022-07-25T03:48:33.047Z,45.60
2022-07-25T03:51:06.459Z,45.84
2022-07-25T03:53:55.115Z,47.36
2022-07-25T03:56:24.471Z,47.24
2022-07-25T03:58:52.529Z,47.09
2022-07-25T04:01:20.864Z,47.53
2022-07-25T04:03:50.189Z,47.95
2022-07-25T04:06:18.707Z,47.18
2022-07-25T04:08:46.885Z,47.06
2022-07-25T04:11:16.228Z,47.33
2022-07-25T04:13:45.741Z,47.36
2022-07-25T04:16:18.432Z,47.03
2022-07-25T04:18:51.673Z,47.17
2022-07-25T04:21:19.850Z,46.76
2022-07-25T04:23:47.910Z,47.27
2022-07-25T04:26:16.458Z,46.90
2022-07-25T04:28:46.010Z,46.15
2022-07-25T04:31:14.057Z,46.63
2022-07-25T04:33:42.617Z,46.78
2022-07-25T04:36:11.249Z,46.92
2022-07-25T04:38:39.235Z,46.81
2022-07-25T04:41:07.601Z,47.19
2022-07-25T04:43:35.617Z,47.41
2022-07-25T04:46:05.159Z,47.98
2022-07-25T04:48:33.378Z,48.42
2022-07-25T04:51:01.656Z,48.27
2022-07-25T04:53:29.785Z,48.35
2022-07-25T04:55:57.927Z,48.57
2022-07-25T04:58:26.000Z,48.73
2022-07-25T05:00:53.996Z,48.55
2022-07-25T05:03:23.343Z,48.67
2022-07-25T05:05:51.489Z,48.89
2022-07-25T05:08:19.533Z,48.44
2022-07-25T05:10:47.539Z,48.34
2022-07-25T05:13:15.583Z,48.85
2022-07-25T05:15:44.330Z,48.58
2022-07-25T05:18:12.302Z,48.01
2022-07-25T05:20:41.811Z,48.24
2022-07-25T05:23:09.853Z,48.65
2022-07-25T05:25:37.885Z,48.84
2022-07-25T05:28:06.338Z,48.89
2022-07-25T05:30:39.631Z,49.05
2022-07-25T05:33:08.077Z,48.79
2022-07-25T05:35:36.110Z,49.42
2022-07-25T05:38:06.589Z,48.95
2022-07-25T05:40:34.754Z,49.12
2022-07-25T05:43:03.651Z,48.80
2022-07-25T05:45:32.053Z,49.30
2022-07-25T05:48:00.007Z,49.90
2022-07-25T05:50:28.068Z,50.28
2022-07-25T05:52:56.025Z,50.86
2022-07-25T05:55:25.370Z,51.33
2022-07-25T05:57:53.388Z,50.77
2022-07-25T06:00:21.407Z,50.90
2022-07-25T06:02:49.663Z,50.73
2022-07-25T06:05:17.867Z,49.71
2022-07-25T06:07:45.914Z,49.74
2022-07-25T06:10:13.953Z,50.53
2022-07-25T06:12:43.310Z,50.45
2022-07-25T06:15:12.650Z,50.78
2022-07-25T06:17:50.902Z,50.09
2022-07-25T06:20:18.913Z,50.06
2022-07-25T06:22:46.891Z,50.77
2022-07-25T06:25:15.105Z,50.84
2022-07-25T06:27:45.050Z,50.32
2022-07-25T06:30:19.739Z,50.96
2022-07-25T06:32:48.852Z,49.87
2022-07-25T06:35:16.910Z,49.75
2022-07-25T06:37:45.018Z,48.85
2022-07-25T06:40:13.417Z,48.53
2022-07-25T06:42:42.885Z,48.32
2022-07-25T06:45:14.565Z,48.66
2022-07-25T06:47:43.790Z,48.01
2022-07-25T06:50:14.218Z,47.97
2022-07-25T06:52:43.186Z,48.41
2022-07-25T06:55:12.734Z,48.61
2022-07-25T06:57:41.154Z,48.00
2022-07-25T07:00:14.459Z,47.29
2022-07-25T07:02:53.538Z,47.95
2022-07-25T07:05:22.142Z,48.33
2022-07-25T07:07:50.146Z,47.96
2022-07-25T07:10:19.043Z,48.21
2022-07-25T07:12:47.393Z,47.80
2022-07-25T07:15:17.602Z,47.33
2022-07-25T07:17:45.571Z,47.00
2022-07-25T07:20:13.835Z,46.51
2022-07-25T07:22:46.250Z,46.35
2022-07-25T07:25:16.402Z,45.18
2022-07-25T07:27:46.037Z,45.35
2022-07-25T07:30:16.837Z,45.23
2022-07-25T07:32:49.047Z,45.02
2022-07-25T07:35:19.142Z,44.58
2022-07-25T07:37:47.693Z,45.07
2022-07-25T07:40:18.158Z,44.98
2022-07-25T07:42:47.721Z,44.89
2022-07-25T07:45:17.284Z,44.73
2022-07-25T07:47:48.018Z,44.63
2022-07-25T07:50:18.632Z,43.93
2022-07-25T07:52:47.558Z,43.88
2022-07-25T07:55:33.674Z,43.22
2022-07-25T07:58:02.493Z,42.88
2022-07-25T08:00:31.547Z,42.67
2022-07-25T08:03:00.455Z,42.64
2022-07-25T08:05:32.631Z,42.21
2022-07-25T08:08:01.904Z,42.77
2022-07-25T08:10:31.643Z,42.72
2022-07-25T08:13:00.376Z,42.18
2022-07-25T08:15:28.426Z,42.65
2022-07-25T08:17:56.572Z,41.83
2022-07-25T08:20:39.863Z,41.50
2022-07-25T08:23:11.047Z,41.31
2022-07-25T08:25:39.375Z,40.54
2022-07-25T08:28:07.561Z,40.80
2022-07-25T08:30:36.838Z,40.41
2022-07-25T08:33:06.808Z,40.73
2022-07-25T08:35:35.948Z,40.27
2022-07-25T08:38:05.716Z,39.90
2022-07-25T08:40:35.760Z,40.28
2022-07-25T08:43:04.440Z,39.75
2022-07-25T08:45:34.241Z,38.97
2022-07-25T08:48:02.294Z,39.54
2022-07-25T08:50:31.346Z,39.82
2022-07-25T08:53:30.250Z,39.36
2022-07-25T08:55:49.431Z,39.43
2022-07-25T08:58:18.914Z,39.56
2022-07-25T09:00:47.864Z,38.58
2022-07-25T09:03:16.041Z,38.10
2022-07-25T09:05:45.331Z,38.31
2022-07-25T09:08:14.623Z,38.46
2022-07-25T09:10:50.294Z,38.36
2022-07-25T09:13:19.279Z,37.85
2022-07-25T09:15:49.527Z,35.54
2022-07-25T09:18:19.980Z,35.17
2022-07-25T09:20:50.937Z,35.36
2022-07-25T09:23:29.734Z,34.64
2022-07-25T09:26:05.300Z,34.40
2022-07-25T09:28:40.442Z,35.10
2022-07-25T09:31:09.840Z,35.05
2022-07-25T09:33:47.835Z,35.04
2022-07-25T09:36:16.206Z,35.22
2022-07-25T09:38:53.017Z,35.25
2022-07-25T09:41:23.123Z,35.40
2022-07-25T09:43:51.124Z,34.85
2022-07-25T09:46:19.172Z,34.85
2022-07-25T09:48:57.747Z,34.84
2022-07-25T09:51:26.428Z,34.39
2022-07-25T09:53:54.427Z,34.08
2022-07-25T09:56:23.930Z,34.12
2022-07-25T09:58:52.888Z,33.47
2022-07-25T10:01:26.551Z,33.53
2022-07-25T10:04:16.477Z,32.96
2022-07-25T10:06:51.588Z,32.92
2022-07-25T10:09:19.750Z,33.91
2022-07-25T10:12:09.652Z,33.05
2022-07-25T10:14:39.163Z,32.72
2022-07-25T10:17:07.905Z,32.70
2022-07-25T10:19:49.241Z,32.38
2022-07-25T10:22:34.425Z,32.25
2022-07-25T10:25:13.761Z,31.79
2022-07-25T10:27:48.786Z,32.15
2022-07-25T10:30:23.963Z,32.18
2022-07-25T10:32:56.769Z,32.58
2022-07-25T10:35:25.844Z,31.59
2022-07-25T10:37:55.052Z,31.50
2022-07-25T10:40:31.230Z,30.96
2022-07-25T10:43:07.933Z,30.73
2022-07-25T10:45:41.190Z,31.61
2022-07-25T10:48:11.658Z,30.92
2022-07-25T10:50:56.566Z,30.54
2022-07-25T10:53:34.378Z,30.48
2022-07-25T10:56:08.211Z,30.50
2022-07-25T10:58:49.017Z,30.91
2022-07-25T11:01:23.000Z,31.45
2022-07-25T11:03:51.978Z,31.03
2022-07-25T11:06:31.823Z,30.16
2022-07-25T11:09:01.226Z,31.30
2022-07-25T11:11:38.203Z,30.81
2022-07-25T11:14:16.454Z,30.19
2022-07-25T11:16:45.074Z,30.21
2022-07-25T11:19:24.077Z,30.15
2022-07-25T11:21:54.691Z,30.56
2022-07-25T11:24:23.580Z,29.39
2022-07-25T11:26:53.296Z,29.49
2022-07-25T11:29:26.917Z,29.97
2022-07-25T11:31:57.114Z,30.18
2022-07-25T11:34:27.833Z,30.58
2022-07-25T11:36:58.802Z,29.28
2022-07-25T11:39:28.987Z,29.25
2022-07-25T11:42:01.768Z,29.79
2022-07-25T11:44:36.317Z,29.17
2022-07-25T11:47:06.018Z,29.53
2022-07-25T11:49:45.517Z,30.17
2022-07-25T11:52:21.523Z,30.36
2022-07-25T11:54:58.097Z,29.03
2022-07-25T11:57:27.478Z,28.94
2022-07-25T11:59:57.768Z,28.82
2022-07-25T12:02:27.339Z,29.73
2022-07-25T12:04:57.660Z,29.66
2022-07-25T12:07:40.005Z,29.68
2022-07-25T12:10:10.476Z,30.14
2022-07-25T12:12:52.033Z,30.75
2022-07-25T12:15:23.665Z,30.49
2022-07-25T12:17:53.240Z,30.78
2022-07-25T12:20:23.487Z,30.38
2022-07-25T12:22:53.194Z,30.92
2022-07-25T12:25:21.725Z,30.31
2022-07-25T12:27:50.042Z,30.21
2022-07-25T12:30:18.354Z,29.92
2022-07-25T12:32:47.792Z,30.58
2022-07-25T12:35:15.873Z,31.21
2022-07-25T12:37:44.633Z,31.02
2022-07-25T12:40:14.531Z,31.27
2022-07-25T12:42:42.787Z,31.56
2022-07-25T12:45:12.060Z,31.31
2022-07-25T12:47:40.228Z,32.04
2022-07-25T12:50:10.561Z,32.67
2022-07-25T12:52:39.222Z,32.73
2022-07-25T12:55:08.633Z,32.11
2022-07-25T12:57:37.381Z,31.46
2022-07-25T13:00:06.162Z,31.94
2022-07-25T13:02:34.297Z,31.77
2022-07-25T13:05:02.287Z,31.94
2022-07-25T13:07:31.940Z,32.08
2022-07-25T13:10:00.842Z,32.87
2022-07-25T13:12:29.065Z,32.36
2022-07-25T13:14:57.245Z,32.63
2022-07-25T13:17:27.663Z,32.25
2022-07-25T13:19:56.909Z,31.73
2022-07-25T13:22:25.219Z,32.36
2022-07-25T13:24:55.277Z,32.53
2022-07-25T13:27:24.581Z,31.95
2022-07-25T13:29:54.856Z,32.21
2022-07-25T13:32:23.967Z,32.21
2022-07-25T13:34:52.022Z,32.47
2022-07-25T13:37:20.020Z,32.41
2022-07-25T13:39:47.984Z,32.85
2022-07-25T13:42:17.624Z,33.34
2022-07-25T13:44:45.553Z,33.02
2022-07-25T13:47:13.627Z,33.41
2022-07-25T13:49:41.782Z,33.62
2022-07-25T13:52:09.831Z,33.94
2022-07-25T13:54:37.919Z,33.65
2022-07-25T13:57:06.043Z,33.82
2022-07-25T13:59:35.486Z,34.43
2022-07-25T14:02:03.591Z,34.81
2022-07-25T14:04:32.041Z,34.58
2022-07-25T14:07:01.769Z,34.65
2022-07-25T14:09:29.761Z,34.65
2022-07-25T14:11:58.097Z,34.50
2022-07-25T14:14:26.161Z,34.78
2022-07-25T14:16:55.714Z,34.78
2022-07-25T14:19:24.199Z,34.28
2022-07-25T14:21:52.267Z,35.13
2022-07-25T14:24:20.238Z,35.06
2022-07-25T14:26:49.187Z,35.08
2022-07-25T14:29:17.170Z,34.81
2022-07-25T14:31:45.301Z,34.72
2022-07-25T14:34:15.669Z,35.02
2022-07-25T14:36:44.828Z,35.48
2022-07-25T14:39:12.853Z,35.46
2022-07-25T14:41:40.827Z,35.52
2022-07-25T14:44:09.557Z,35.34
2022-07-25T14:46:37.692Z,35.31
2022-07-25T14:49:06.101Z,35.96
2022-07-25T14:51:35.656Z,36.06
2022-07-25T14:54:03.678Z,35.68
2022-07-25T14:56:31.692Z,36.03
2022-07-25T14:58:59.995Z,36.01
2022-07-25T15:01:28.035Z,35.98
2022-07-25T15:03:57.177Z,35.79
2022-07-25T15:06:29.000Z,36.44
2022-07-25T15:08:59.003Z,36.34
2022-07-25T15:11:27.065Z,36.39
2022-07-25T15:13:55.107Z,36.88
2022-07-25T15:16:23.382Z,36.70
2022-07-25T15:19:15.371Z,36.52
2022-07-25T15:21:39.978Z,36.62
2022-07-25T15:24:09.544Z,37.01
2022-07-25T15:26:38.060Z,36.87
2022-07-25T15:29:09.788Z,37.31
2022-07-25T15:31:38.537Z,37.08
2022-07-25T15:34:06.572Z,36.80
2022-07-25T15:36:34.608Z,37.00
2022-07-25T15:39:02.851Z,35.94
2022-07-25T15:41:33.028Z,36.23
2022-07-25T15:44:01.047Z,35.34
2022-07-25T15:46:29.271Z,35.19
2022-07-25T15:48:58.577Z,35.33
2022-07-25T15:51:26.676Z,35.56
2022-07-25T15:53:54.673Z,35.97
2022-07-25T15:56:22.706Z,36.83
2022-07-25T15:58:52.172Z,36.79
2022-07-25T16:01:20.341Z,35.36
2022-07-25T16:03:48.530Z,34.96
2022-07-25T16:06:20.626Z,35.15
2022-07-25T16:08:50.170Z,35.28
2022-07-25T16:11:24.896Z,35.42
2022-07-25T16:13:54.780Z,35.40
2022-07-25T16:16:23.016Z,36.36
2022-07-25T16:18:51.199Z,36.57
2022-07-25T16:21:19.299Z,35.92
2022-07-25T16:23:47.710Z,36.34
2022-07-25T16:26:15.810Z,36.26
2022-07-25T16:28:45.275Z,36.21
2022-07-25T16:31:14.740Z,36.57
2022-07-25T16:33:42.817Z,36.52
2022-07-25T16:36:12.235Z,36.08
2022-07-25T16:38:40.549Z,35.72
2022-07-25T16:41:08.570Z,35.42
2022-07-25T16:43:36.550Z,36.00
2022-07-25T16:46:04.762Z,36.22
2022-07-25T16:48:34.709Z,36.11
2022-07-25T16:51:02.757Z,36.05
2022-07-25T16:53:32.679Z,35.95
2022-07-25T16:56:00.745Z,35.60
2022-07-25T16:58:28.907Z,36.23
2022-07-25T17:00:56.894Z,36.31
2022-07-25T17:03:24.974Z,36.24
2022-07-25T17:05:54.706Z,36.37
2022-07-25T17:08:22.700Z,36.08
2022-07-25T17:10:50.761Z,36.18
2022-07-25T17:13:18.793Z,36.78
2022-07-25T17:15:46.924Z,36.76
2022-07-25T17:18:15.287Z,36.76
2022-07-25T17:20:43.507Z,37.54
2022-07-25T17:23:12.969Z,37.26
2022-07-25T17:25:41.176Z,37.58
2022-07-25T17:28:09.437Z,37.61
2022-07-25T17:30:37.445Z,38.11
2022-07-25T17:33:05.595Z,38.62
2022-07-25T17:35:33.923Z,38.67
2022-07-25T17:38:02.466Z,38.75
2022-07-25T17:40:31.891Z,38.80
2022-07-25T17:43:00.024Z,39.07
2022-07-25T17:45:28.002Z,39.25
2022-07-25T17:47:56.049Z,39.04
2022-07-25T17:50:29.152Z,39.32
2022-07-25T17:52:59.708Z,39.13
2022-07-25T17:55:28.740Z,39.01
2022-07-25T17:57:59.713Z,38.52
2022-07-25T18:00:28.505Z,38.84
2022-07-25T18:02:56.790Z,39.65
2022-07-25T18:05:25.139Z,40.30
2022-07-25T18:07:53.944Z,40.55
2022-07-25T18:10:22.840Z,40.47
2022-07-25T18:12:51.462Z,40.42
2022-07-25T18:15:20.896Z,40.52
2022-07-25T18:17:49.511Z,40.81
2022-07-25T18:20:17.933Z,41.39
2022-07-25T18:22:46.453Z,41.25
2022-07-25T18:25:16.233Z,40.90
2022-07-25T18:27:45.262Z,41.17
2022-07-25T18:30:14.942Z,41.35
2022-07-25T18:32:45.656Z,41.55
2022-07-25T18:35:14.400Z,41.50
2022-07-25T18:37:43.639Z,41.74
2022-07-25T18:40:12.448Z,41.47
2022-07-25T18:42:40.598Z,41.58
2022-07-25T18:45:09.895Z,41.78
2022-07-25T18:47:38.414Z,41.82
2022-07-25T18:50:08.804Z,41.40
2022-07-25T18:52:37.498Z,42.01
2022-07-25T18:55:07.297Z,42.50
2022-07-25T18:57:35.696Z,42.94
2022-07-25T19:00:04.317Z,43.03
2022-07-25T19:02:32.275Z,43.95
2022-07-25T19:05:00.416Z,43.89
2022-07-25T19:07:31.328Z,44.23
2022-07-25T19:09:59.499Z,44.44
2022-07-25T19:12:27.523Z,44.29
2022-07-25T19:14:56.423Z,44.09
2022-07-25T19:17:24.727Z,44.85
2022-07-25T19:19:53.259Z,44.21
2022-07-25T19:22:21.254Z,45.00
2022-07-25T19:24:50.609Z,45.03
2022-07-25T19:27:19.413Z,44.41
2022-07-25T19:29:47.883Z,44.20
2022-07-25T19:32:16.262Z,44.06
2022-07-25T19:34:46.567Z,43.76
2022-07-25T19:37:14.554Z,44.20
2022-07-25T19:39:42.514Z,43.63
2022-07-25T19:42:12.330Z,43.68
2022-07-25T19:44:40.679Z,43.37
2022-07-25T19:47:11.881Z,43.25
2022-07-25T19:49:40.747Z,43.19
2022-07-25T19:52:09.416Z,42.82
2022-07-25T19:54:37.572Z,42.81
2022-07-25T19:57:06.165Z,43.10
2022-07-25T19:59:35.661Z,42.55
2022-07-25T20:02:04.332Z,43.27
2022-07-25T20:04:32.383Z,42.88
2022-07-25T20:07:02.267Z,42.63
2022-07-25T20:09:30.521Z,43.36
2022-07-25T20:11:58.818Z,42.76
2022-07-25T20:14:26.859Z,43.20
2022-07-25T20:16:56.243Z,43.00
2022-07-25T20:19:24.807Z,43.29
2022-07-25T20:21:52.805Z,43.09
2022-07-25T20:24:21.871Z,43.22
2022-07-25T20:26:50.272Z,43.44
2022-07-25T20:29:18.403Z,43.18
2022-07-25T20:31:46.703Z,43.92
2022-07-25T20:34:16.961Z,44.24
2022-07-25T20:36:47.800Z,44.03
2022-07-25T20:39:15.954Z,44.53
2022-07-25T20:41:44.669Z,44.81
2022-07-25T20:44:12.818Z,44.37
2022-07-25T20:46:40.932Z,45.01
2022-07-25T20:49:09.808Z,44.84
2022-07-25T20:51:40.900Z,44.44
2022-07-25T20:54:09.487Z,44.55
2022-07-25T20:56:37.476Z,45.33
2022-07-25T20:59:05.704Z,45.11
2022-07-25T21:01:34.109Z,45.01
2022-07-25T21:04:07.021Z,45.47
2022-07-25T21:06:36.917Z,45.53
2022-07-25T21:09:06.936Z,46.05
2022-07-25T21:11:36.111Z,45.94
2022-07-25T21:14:04.825Z,45.97
2022-07-25T21:16:34.029Z,45.84
2022-07-25T21:19:02.076Z,46.28
2022-07-25T21:21:30.172Z,46.11
2022-07-25T21:23:58.153Z,46.03
2022-07-25T21:26:27.938Z,46.38
2022-07-25T21:28:55.945Z,46.37
2022-07-25T21:31:24.104Z,45.96
2022-07-25T21:33:52.191Z,45.81
2022-07-25T21:36:20.465Z,45.37
2022-07-25T21:38:48.703Z,45.27
2022-07-25T21:41:16.655Z,45.55
2022-07-25T21:43:46.618Z,45.51
2022-07-25T21:46:14.750Z,44.96
2022-07-25T21:49:01.086Z,45.10
2022-07-25T21:51:40.399Z,45.12
2022-07-25T21:54:09.327Z,45.45
2022-07-25T21:56:37.612Z,44.95
2022-07-25T21:59:07.379Z,44.82
2022-07-25T22:01:35.762Z,45.01
2022-07-25T22:04:04.144Z,45.03
2022-07-25T22:06:32.250Z,44.74
2022-07-25T22:09:00.279Z,44.90
2022-07-25T22:11:43.017Z,45.05
2022-07-25T22:14:16.948Z,44.99
2022-07-25T22:16:45.065Z,44.70
2022-07-25T22:19:13.158Z,44.72
2022-07-25T22:21:41.643Z,44.70
2022-07-25T22:24:10.595Z,44.59
2022-07-25T22:26:38.733Z,44.58
2022-07-25T22:29:07.080Z,44.55
2022-07-25T22:31:38.735Z,44.42
2022-07-25T22:34:07.147Z,45.12
2022-07-25T22:36:35.254Z,45.02
2022-07-25T22:39:03.331Z,45.01
2022-07-25T22:41:31.296Z,45.06
2022-07-25T22:44:00.093Z,45.50
2022-07-25T22:46:29.103Z,45.65
2022-07-25T22:48:59.723Z,45.64
2022-07-25T22:51:29.056Z,45.70
2022-07-25T22:53:57.651Z,46.04
2022-07-25T22:56:26.189Z,46.23
2022-07-25T22:58:55.076Z,46.26
2022-07-25T23:01:23.844Z,46.45
2022-07-25T23:03:51.946Z,46.33
2022-07-25T23:06:22.262Z,46.81
2022-07-25T23:08:51.101Z,46.61
2022-07-25T23:11:19.338Z,46.56
2022-07-25T23:13:47.380Z,46.69
2022-07-25T23:16:15.548Z,46.88
2022-07-25T23:18:43.714Z,46.93
2022-07-25T23:21:12.295Z,47.00
2022-07-25T23:23:41.615Z,46.96
2022-07-25T23:26:09.603Z,47.12
2022-07-25T23:28:37.735Z,48.01
2022-07-25T23:31:06.057Z,49.61
2022-07-25T23:33:34.170Z,49.19
2022-07-25T23:36:02.347Z,49.27
2022-07-25T23:38:30.457Z,49.48
2022-07-25T23:40:59.870Z,49.23
2022-07-25T23:43:57.553Z,49.07
2022-07-25T23:46:15.792Z,49.24
2022-07-25T23:48:46.248Z,49.94
2022-07-25T23:51:16.570Z,50.64
2022-07-25T23:53:44.642Z,51.22
2022-07-25T23:56:20.248Z,51.02
2022-07-25T23:58:50.080Z,51.98
